sensor_id;sensor_type;location;lat;lon;timestamp;P1;durP1;ratioP1;P2;durP2;ratioP2
20986;SDS011;10652;50.306;8.570;2023-10-19T00:01:34;5.93;;;5.32;;
20986;SDS011;10652;50.306;8.570;2023-10-19T00:05:37;6.93;;;5.20;;
20986;SDS011;10652;50.306;8.570;2023-10-19T00:09:40;5.38;;;4.80;;
20986;SDS011;10652;50.306;8.570;2023-10-19T00:13:42;4.60;;;4.10;;
20986;SDS011;10652;50.306;8.570;2023-10-19T00:17:46;4.18;;;3.78;;
20986;SDS011;10652;50.306;8.570;2023-10-19T00:21:48;3.03;;;2.72;;
20986;SDS011;10652;50.306;8.570;2023-10-19T00:25:53;2.50;;;2.30;;
20986;SDS011;10652;50.306;8.570;2023-10-19T00:29:56;1.90;;;1.80;;
20986;SDS011;10652;50.306;8.570;2023-10-19T00:34:07;1.60;;;1.50;;
20986;SDS011;10652;50.306;8.570;2023-10-19T00:38:10;1.40;;;1.30;;
20986;SDS011;10652;50.306;8.570;2023-10-19T00:42:30;1.48;;;1.38;;
20986;SDS011;10652;50.306;8.570;2023-10-19T00:46:33;0.98;;;0.98;;
20986;SDS011;10652;50.306;8.570;2023-10-19T00:50:46;0.98;;;0.98;;
20986;SDS011;10652;50.306;8.570;2023-10-19T00:54:54;0.93;;;0.90;;
20986;SDS011;10652;50.306;8.570;2023-10-19T00:59:01;0.90;;;0.90;;
20986;SDS011;10652;50.306;8.570;2023-10-19T01:03:29;1.08;;;1.00;;
20986;SDS011;10652;50.306;8.570;2023-10-19T01:07:34;1.40;;;1.30;;
20986;SDS011;10652;50.306;8.570;2023-10-19T01:15:47;1.55;;;1.20;;
20986;SDS011;10652;50.306;8.570;2023-10-19T01:19:51;1.30;;;1.20;;
20986;SDS011;10652;50.306;8.570;2023-10-19T01:23:55;1.30;;;1.20;;
20986;SDS011;10652;50.306;8.570;2023-10-19T01:27:59;1.50;;;1.40;;
20986;SDS011;10652;50.306;8.570;2023-10-19T01:32:04;1.98;;;1.77;;
20986;SDS011;10652;50.306;8.570;2023-10-19T01:36:08;2.90;;;2.20;;
20986;SDS011;10652;50.306;8.570;2023-10-19T01:40:13;3.83;;;2.63;;
20986;SDS011;10652;50.306;8.570;2023-10-19T01:44:22;3.97;;;3.50;;
20986;SDS011;10652;50.306;8.570;2023-10-19T01:48:26;4.53;;;3.95;;
20986;SDS011;10652;50.306;8.570;2023-10-19T01:52:38;4.47;;;4.07;;
20986;SDS011;10652;50.306;8.570;2023-10-19T01:56:40;5.10;;;4.43;;
20986;SDS011;10652;50.306;8.570;2023-10-19T02:00:45;4.70;;;4.30;;
20986;SDS011;10652;50.306;8.570;2023-10-19T02:04:47;5.38;;;4.88;;
20986;SDS011;10652;50.306;8.570;2023-10-19T02:08:54;6.10;;;5.35;;
20986;SDS011;10652;50.306;8.570;2023-10-19T02:12:58;8.30;;;7.47;;
20986;SDS011;10652;50.306;8.570;2023-10-19T02:17:07;9.65;;;8.02;;
20986;SDS011;10652;50.306;8.570;2023-10-19T02:21:11;12.18;;;8.98;;
20986;SDS011;10652;50.306;8.570;2023-10-19T02:25:16;16.92;;;10.63;;
20986;SDS011;10652;50.306;8.570;2023-10-19T02:29:19;13.50;;;9.88;;
20986;SDS011;10652;50.306;8.570;2023-10-19T02:33:21;12.20;;;9.70;;
20986;SDS011;10652;50.306;8.570;2023-10-19T02:37:23;14.48;;;10.32;;
20986;SDS011;10652;50.306;8.570;2023-10-19T02:41:27;13.55;;;10.55;;
20986;SDS011;10652;50.306;8.570;2023-10-19T02:45:30;21.52;;;11.50;;
20986;SDS011;10652;50.306;8.570;2023-10-19T02:49:33;28.40;;;11.65;;
20986;SDS011;10652;50.306;8.570;2023-10-19T02:53:40;13.98;;;10.38;;
20986;SDS011;10652;50.306;8.570;2023-10-19T02:57:42;13.73;;;10.82;;
20986;SDS011;10652;50.306;8.570;2023-10-19T03:01:49;12.15;;;9.68;;
20986;SDS011;10652;50.306;8.570;2023-10-19T03:06:17;12.75;;;9.57;;
20986;SDS011;10652;50.306;8.570;2023-10-19T03:10:21;11.93;;;9.30;;
20986;SDS011;10652;50.306;8.570;2023-10-19T03:14:36;11.90;;;9.73;;
20986;SDS011;10652;50.306;8.570;2023-10-19T03:18:39;13.02;;;10.05;;
20986;SDS011;10652;50.306;8.570;2023-10-19T03:22:41;14.13;;;10.85;;
20986;SDS011;10652;50.306;8.570;2023-10-19T03:26:43;18.65;;;11.95;;
20986;SDS011;10652;50.306;8.570;2023-10-19T03:30:50;26.25;;;12.45;;
20986;SDS011;10652;50.306;8.570;2023-10-19T03:34:52;27.85;;;12.95;;
20986;SDS011;10652;50.306;8.570;2023-10-19T03:39:00;26.13;;;12.23;;
20986;SDS011;10652;50.306;8.570;2023-10-19T03:43:15;28.77;;;12.32;;
20986;SDS011;10652;50.306;8.570;2023-10-19T03:47:19;23.42;;;12.25;;
20986;SDS011;10652;50.306;8.570;2023-10-19T03:51:23;17.20;;;12.45;;
20986;SDS011;10652;50.306;8.570;2023-10-19T03:55:27;19.70;;;12.30;;
20986;SDS011;10652;50.306;8.570;2023-10-19T03:59:31;18.88;;;12.35;;
20986;SDS011;10652;50.306;8.570;2023-10-19T04:03:36;22.27;;;11.95;;
20986;SDS011;10652;50.306;8.570;2023-10-19T04:07:38;16.88;;;12.05;;
20986;SDS011;10652;50.306;8.570;2023-10-19T04:11:40;19.73;;;12.18;;
20986;SDS011;10652;50.306;8.570;2023-10-19T04:15:52;20.70;;;12.38;;
20986;SDS011;10652;50.306;8.570;2023-10-19T04:19:55;20.17;;;11.77;;
20986;SDS011;10652;50.306;8.570;2023-10-19T04:23:57;18.27;;;12.13;;
20986;SDS011;10652;50.306;8.570;2023-10-19T04:28:01;15.82;;;11.35;;
20986;SDS011;10652;50.306;8.570;2023-10-19T04:32:03;19.02;;;11.75;;
20986;SDS011;10652;50.306;8.570;2023-10-19T04:36:08;16.25;;;11.30;;
20986;SDS011;10652;50.306;8.570;2023-10-19T04:40:13;16.63;;;11.95;;
20986;SDS011;10652;50.306;8.570;2023-10-19T04:44:15;20.90;;;12.80;;
20986;SDS011;10652;50.306;8.570;2023-10-19T04:48:17;22.13;;;12.55;;
20986;SDS011;10652;50.306;8.570;2023-10-19T04:52:20;46.30;;;12.98;;
20986;SDS011;10652;50.306;8.570;2023-10-19T04:56:22;41.88;;;13.90;;
20986;SDS011;10652;50.306;8.570;2023-10-19T05:00:24;23.60;;;12.95;;
20986;SDS011;10652;50.306;8.570;2023-10-19T05:04:28;25.05;;;12.65;;
20986;SDS011;10652;50.306;8.570;2023-10-19T05:08:31;20.30;;;12.02;;
20986;SDS011;10652;50.306;8.570;2023-10-19T05:12:35;17.17;;;12.05;;
20986;SDS011;10652;50.306;8.570;2023-10-19T05:16:37;21.50;;;12.20;;
20986;SDS011;10652;50.306;8.570;2023-10-19T05:20:39;27.83;;;13.20;;
20986;SDS011;10652;50.306;8.570;2023-10-19T05:24:42;20.50;;;13.02;;
20986;SDS011;10652;50.306;8.570;2023-10-19T05:28:44;35.22;;;12.43;;
20986;SDS011;10652;50.306;8.570;2023-10-19T05:32:46;46.70;;;12.30;;
20986;SDS011;10652;50.306;8.570;2023-10-19T05:36:51;155.73;;;16.15;;
20986;SDS011;10652;50.306;8.570;2023-10-19T05:40:54;113.57;;;13.35;;
20986;SDS011;10652;50.306;8.570;2023-10-19T05:44:59;79.45;;;12.75;;
20986;SDS011;10652;50.306;8.570;2023-10-19T05:49:05;129.63;;;14.25;;
20986;SDS011;10652;50.306;8.570;2023-10-19T05:53:08;216.70;;;15.95;;
20986;SDS011;10652;50.306;8.570;2023-10-19T05:57:10;164.05;;;14.93;;
20986;SDS011;10652;50.306;8.570;2023-10-19T06:01:12;157.80;;;15.10;;
20986;SDS011;10652;50.306;8.570;2023-10-19T06:05:15;226.02;;;15.88;;
20986;SDS011;10652;50.306;8.570;2023-10-19T06:09:18;104.93;;;13.02;;
20986;SDS011;10652;50.306;8.570;2023-10-19T06:13:21;68.93;;;13.00;;
20986;SDS011;10652;50.306;8.570;2023-10-19T06:17:24;89.05;;;13.45;;
20986;SDS011;10652;50.306;8.570;2023-10-19T06:21:26;89.35;;;12.98;;
20986;SDS011;10652;50.306;8.570;2023-10-19T06:25:28;60.22;;;12.00;;
20986;SDS011;10652;50.306;8.570;2023-10-19T06:29:30;44.17;;;11.88;;
20986;SDS011;10652;50.306;8.570;2023-10-19T06:33:32;51.45;;;12.13;;
20986;SDS011;10652;50.306;8.570;2023-10-19T06:37:35;35.72;;;12.13;;
20986;SDS011;10652;50.306;8.570;2023-10-19T06:41:37;47.70;;;11.85;;
20986;SDS011;10652;50.306;8.570;2023-10-19T06:45:39;74.63;;;12.75;;
20986;SDS011;10652;50.306;8.570;2023-10-19T06:49:41;68.10;;;13.20;;
20986;SDS011;10652;50.306;8.570;2023-10-19T06:53:43;40.10;;;12.77;;
20986;SDS011;10652;50.306;8.570;2023-10-19T06:57:50;26.02;;;12.38;;
20986;SDS011;10652;50.306;8.570;2023-10-19T07:01:52;36.43;;;12.37;;
20986;SDS011;10652;50.306;8.570;2023-10-19T07:05:54;24.85;;;12.77;;
20986;SDS011;10652;50.306;8.570;2023-10-19T07:09:58;14.10;;;11.23;;
20986;SDS011;10652;50.306;8.570;2023-10-19T07:14:00;14.00;;;11.48;;
20986;SDS011;10652;50.306;8.570;2023-10-19T07:18:03;13.38;;;11.00;;
20986;SDS011;10652;50.306;8.570;2023-10-19T07:22:05;15.73;;;11.85;;
20986;SDS011;10652;50.306;8.570;2023-10-19T07:26:11;15.25;;;11.20;;
20986;SDS011;10652;50.306;8.570;2023-10-19T07:30:19;14.48;;;10.20;;
20986;SDS011;10652;50.306;8.570;2023-10-19T07:34:31;14.82;;;10.25;;
20986;SDS011;10652;50.306;8.570;2023-10-19T07:38:35;14.27;;;10.63;;
20986;SDS011;10652;50.306;8.570;2023-10-19T07:42:37;14.65;;;9.95;;
20986;SDS011;10652;50.306;8.570;2023-10-19T07:46:39;12.85;;;9.98;;
20986;SDS011;10652;50.306;8.570;2023-10-19T07:50:41;12.55;;;9.40;;
20986;SDS011;10652;50.306;8.570;2023-10-19T07:54:44;13.00;;;9.80;;
20986;SDS011;10652;50.306;8.570;2023-10-19T07:58:47;14.80;;;10.98;;
20986;SDS011;10652;50.306;8.570;2023-10-19T08:02:49;14.77;;;11.15;;
20986;SDS011;10652;50.306;8.570;2023-10-19T08:06:53;15.00;;;10.15;;
20986;SDS011;10652;50.306;8.570;2023-10-19T08:10:55;12.93;;;9.57;;
20986;SDS011;10652;50.306;8.570;2023-10-19T08:14:58;13.93;;;10.20;;
20986;SDS011;10652;50.306;8.570;2023-10-19T08:19:01;13.57;;;11.10;;
20986;SDS011;10652;50.306;8.570;2023-10-19T08:23:03;15.65;;;11.32;;
20986;SDS011;10652;50.306;8.570;2023-10-19T08:27:07;15.65;;;10.93;;
20986;SDS011;10652;50.306;8.570;2023-10-19T08:31:09;13.85;;;10.63;;
20986;SDS011;10652;50.306;8.570;2023-10-19T08:35:12;15.40;;;11.27;;
20986;SDS011;10652;50.306;8.570;2023-10-19T08:39:14;13.82;;;10.95;;
20986;SDS011;10652;50.306;8.570;2023-10-19T08:43:17;14.48;;;10.50;;
20986;SDS011;10652;50.306;8.570;2023-10-19T08:47:20;13.95;;;9.32;;
20986;SDS011;10652;50.306;8.570;2023-10-19T08:51:23;11.68;;;8.88;;
20986;SDS011;10652;50.306;8.570;2023-10-19T08:55:26;10.23;;;8.02;;
20986;SDS011;10652;50.306;8.570;2023-10-19T08:59:46;9.40;;;6.97;;
20986;SDS011;10652;50.306;8.570;2023-10-19T09:03:48;8.57;;;6.60;;
20986;SDS011;10652;50.306;8.570;2023-10-19T09:07:51;8.27;;;6.47;;
20986;SDS011;10652;50.306;8.570;2023-10-19T09:11:57;12.27;;;7.23;;
20986;SDS011;10652;50.306;8.570;2023-10-19T09:16:04;9.77;;;7.07;;
20986;SDS011;10652;50.306;8.570;2023-10-19T09:20:07;9.88;;;6.95;;
20986;SDS011;10652;50.306;8.570;2023-10-19T09:24:11;10.27;;;6.63;;
20986;SDS011;10652;50.306;8.570;2023-10-19T09:28:13;11.50;;;6.63;;
20986;SDS011;10652;50.306;8.570;2023-10-19T09:32:16;9.55;;;7.05;;
20986;SDS011;10652;50.306;8.570;2023-10-19T09:36:18;7.95;;;6.97;;
20986;SDS011;10652;50.306;8.570;2023-10-19T09:40:22;12.35;;;8.52;;
20986;SDS011;10652;50.306;8.570;2023-10-19T09:44:25;10.57;;;8.55;;
20986;SDS011;10652;50.306;8.570;2023-10-19T09:48:34;13.35;;;10.05;;
20986;SDS011;10652;50.306;8.570;2023-10-19T09:52:47;11.55;;;8.88;;
20986;SDS011;10652;50.306;8.570;2023-10-19T09:56:52;12.32;;;9.10;;
20986;SDS011;10652;50.306;8.570;2023-10-19T10:01:03;10.80;;;8.77;;
20986;SDS011;10652;50.306;8.570;2023-10-19T10:09:43;11.93;;;7.97;;
20986;SDS011;10652;50.306;8.570;2023-10-19T10:13:47;9.93;;;7.07;;
20986;SDS011;10652;50.306;8.570;2023-10-19T10:17:54;9.25;;;7.57;;
20986;SDS011;10652;50.306;8.570;2023-10-19T10:26:15;10.25;;;8.15;;
20986;SDS011;10652;50.306;8.570;2023-10-19T10:30:19;12.40;;;7.93;;
20986;SDS011;10652;50.306;8.570;2023-10-19T10:38:36;12.18;;;9.07;;
20986;SDS011;10652;50.306;8.570;2023-10-19T10:42:39;14.57;;;10.45;;
20986;SDS011;10652;50.306;8.570;2023-10-19T10:46:43;13.77;;;10.63;;
20986;SDS011;10652;50.306;8.570;2023-10-19T10:50:45;20.67;;;12.25;;
20986;SDS011;10652;50.306;8.570;2023-10-19T10:54:48;15.88;;;11.55;;
20986;SDS011;10652;50.306;8.570;2023-10-19T10:58:50;16.92;;;12.48;;
20986;SDS011;10652;50.306;8.570;2023-10-19T11:02:58;18.02;;;11.98;;
20986;SDS011;10652;50.306;8.570;2023-10-19T11:07:05;17.02;;;12.27;;
20986;SDS011;10652;50.306;8.570;2023-10-19T11:11:19;14.05;;;9.95;;
20986;SDS011;10652;50.306;8.570;2023-10-19T11:15:22;12.38;;;8.50;;
20986;SDS011;10652;50.306;8.570;2023-10-19T11:19:37;13.48;;;9.45;;
20986;SDS011;10652;50.306;8.570;2023-10-19T11:23:42;11.50;;;8.00;;
20986;SDS011;10652;50.306;8.570;2023-10-19T11:27:46;11.27;;;8.48;;
20986;SDS011;10652;50.306;8.570;2023-10-19T11:31:58;9.70;;;7.88;;
20986;SDS011;10652;50.306;8.570;2023-10-19T11:36:04;9.95;;;7.60;;
20986;SDS011;10652;50.306;8.570;2023-10-19T11:40:07;10.25;;;7.72;;
20986;SDS011;10652;50.306;8.570;2023-10-19T11:44:10;14.35;;;8.68;;
20986;SDS011;10652;50.306;8.570;2023-10-19T11:48:12;11.23;;;8.38;;
20986;SDS011;10652;50.306;8.570;2023-10-19T11:52:14;13.52;;;8.77;;
20986;SDS011;10652;50.306;8.570;2023-10-19T11:56:16;13.05;;;9.07;;
20986;SDS011;10652;50.306;8.570;2023-10-19T12:00:18;10.95;;;8.45;;
20986;SDS011;10652;50.306;8.570;2023-10-19T12:04:25;15.75;;;8.45;;
20986;SDS011;10652;50.306;8.570;2023-10-19T12:08:28;10.38;;;6.47;;
20986;SDS011;10652;50.306;8.570;2023-10-19T12:12:30;10.60;;;7.45;;
20986;SDS011;10652;50.306;8.570;2023-10-19T12:16:35;7.93;;;6.07;;
20986;SDS011;10652;50.306;8.570;2023-10-19T12:20:38;8.80;;;6.25;;
20986;SDS011;10652;50.306;8.570;2023-10-19T12:24:40;10.80;;;6.03;;
20986;SDS011;10652;50.306;8.570;2023-10-19T12:28:42;8.18;;;5.47;;
20986;SDS011;10652;50.306;8.570;2023-10-19T12:32:48;10.52;;;6.03;;
20986;SDS011;10652;50.306;8.570;2023-10-19T12:36:51;7.35;;;5.13;;
20986;SDS011;10652;50.306;8.570;2023-10-19T12:40:54;13.70;;;8.80;;
20986;SDS011;10652;50.306;8.570;2023-10-19T12:44:56;8.25;;;5.65;;
20986;SDS011;10652;50.306;8.570;2023-10-19T12:48:58;8.05;;;5.40;;
20986;SDS011;10652;50.306;8.570;2023-10-19T12:53:00;9.20;;;5.45;;
20986;SDS011;10652;50.306;8.570;2023-10-19T12:57:03;7.80;;;5.20;;
20986;SDS011;10652;50.306;8.570;2023-10-19T13:01:08;11.15;;;5.28;;
20986;SDS011;10652;50.306;8.570;2023-10-19T13:05:18;6.45;;;5.15;;
20986;SDS011;10652;50.306;8.570;2023-10-19T13:09:22;5.95;;;4.45;;
20986;SDS011;10652;50.306;8.570;2023-10-19T13:13:32;9.27;;;5.88;;
20986;SDS011;10652;50.306;8.570;2023-10-19T13:17:34;11.13;;;5.28;;
20986;SDS011;10652;50.306;8.570;2023-10-19T13:21:39;9.02;;;5.45;;
20986;SDS011;10652;50.306;8.570;2023-10-19T13:25:44;7.57;;;4.85;;
20986;SDS011;10652;50.306;8.570;2023-10-19T13:29:51;7.00;;;4.35;;
20986;SDS011;10652;50.306;8.570;2023-10-19T13:33:53;7.28;;;4.40;;
20986;SDS011;10652;50.306;8.570;2023-10-19T13:37:56;7.43;;;4.00;;
20986;SDS011;10652;50.306;8.570;2023-10-19T13:41:58;5.63;;;3.85;;
20986;SDS011;10652;50.306;8.570;2023-10-19T13:46:00;7.72;;;4.10;;
20986;SDS011;10652;50.306;8.570;2023-10-19T13:50:03;6.35;;;4.10;;
20986;SDS011;10652;50.306;8.570;2023-10-19T13:54:07;8.38;;;4.72;;
20986;SDS011;10652;50.306;8.570;2023-10-19T13:58:09;8.13;;;4.72;;
20986;SDS011;10652;50.306;8.570;2023-10-19T14:02:12;11.00;;;4.68;;
20986;SDS011;10652;50.306;8.570;2023-10-19T14:06:14;10.63;;;5.90;;
20986;SDS011;10652;50.306;8.570;2023-10-19T14:10:18;10.68;;;6.90;;
20986;SDS011;10652;50.306;8.570;2023-10-19T14:14:23;9.55;;;7.40;;
20986;SDS011;10652;50.306;8.570;2023-10-19T14:18:25;10.45;;;7.05;;
20986;SDS011;10652;50.306;8.570;2023-10-19T14:22:30;10.60;;;7.93;;
20986;SDS011;10652;50.306;8.570;2023-10-19T14:26:36;11.60;;;8.50;;
20986;SDS011;10652;50.306;8.570;2023-10-19T14:30:38;10.20;;;8.95;;
20986;SDS011;10652;50.306;8.570;2023-10-19T14:34:40;11.93;;;9.82;;
20986;SDS011;10652;50.306;8.570;2023-10-19T14:38:44;14.25;;;9.88;;
20986;SDS011;10652;50.306;8.570;2023-10-19T14:42:48;15.05;;;10.73;;
20986;SDS011;10652;50.306;8.570;2023-10-19T14:46:50;14.85;;;10.27;;
20986;SDS011;10652;50.306;8.570;2023-10-19T14:50:56;13.52;;;11.23;;
20986;SDS011;10652;50.306;8.570;2023-10-19T14:54:59;13.20;;;10.32;;
20986;SDS011;10652;50.306;8.570;2023-10-19T14:59:01;18.60;;;15.50;;
20986;SDS011;10652;50.306;8.570;2023-10-19T15:03:03;14.25;;;12.07;;
20986;SDS011;10652;50.306;8.570;2023-10-19T15:07:10;15.93;;;11.77;;
20986;SDS011;10652;50.306;8.570;2023-10-19T15:11:15;14.23;;;11.25;;
20986;SDS011;10652;50.306;8.570;2023-10-19T15:15:19;14.27;;;12.13;;
20986;SDS011;10652;50.306;8.570;2023-10-19T15:19:22;14.85;;;11.52;;
20986;SDS011;10652;50.306;8.570;2023-10-19T15:23:25;15.75;;;12.27;;
20986;SDS011;10652;50.306;8.570;2023-10-19T15:27:27;14.02;;;11.23;;
20986;SDS011;10652;50.306;8.570;2023-10-19T15:31:30;13.48;;;12.07;;
20986;SDS011;10652;50.306;8.570;2023-10-19T15:35:32;16.52;;;12.55;;
20986;SDS011;10652;50.306;8.570;2023-10-19T15:39:38;17.85;;;12.02;;
20986;SDS011;10652;50.306;8.570;2023-10-19T15:43:40;16.95;;;14.90;;
20986;SDS011;10652;50.306;8.570;2023-10-19T15:47:42;19.33;;;14.43;;
20986;SDS011;10652;50.306;8.570;2023-10-19T15:51:44;22.40;;;16.20;;
20986;SDS011;10652;50.306;8.570;2023-10-19T15:55:47;20.25;;;14.82;;
20986;SDS011;10652;50.306;8.570;2023-10-19T15:59:49;14.80;;;12.77;;
20986;SDS011;10652;50.306;8.570;2023-10-19T16:03:51;16.90;;;13.00;;
20986;SDS011;10652;50.306;8.570;2023-10-19T16:07:54;18.85;;;13.52;;
20986;SDS011;10652;50.306;8.570;2023-10-19T16:11:56;20.00;;;14.00;;
20986;SDS011;10652;50.306;8.570;2023-10-19T16:16:01;19.05;;;14.65;;
20986;SDS011;10652;50.306;8.570;2023-10-19T16:20:04;23.35;;;15.48;;
20986;SDS011;10652;50.306;8.570;2023-10-19T16:24:11;27.02;;;17.13;;
20986;SDS011;10652;50.306;8.570;2023-10-19T16:28:14;22.45;;;15.38;;
20986;SDS011;10652;50.306;8.570;2023-10-19T16:32:16;23.42;;;17.50;;
20986;SDS011;10652;50.306;8.570;2023-10-19T16:36:21;19.63;;;14.57;;
20986;SDS011;10652;50.306;8.570;2023-10-19T16:40:23;18.48;;;13.60;;
20986;SDS011;10652;50.306;8.570;2023-10-19T16:44:25;16.50;;;12.02;;
20986;SDS011;10652;50.306;8.570;2023-10-19T16:48:27;15.75;;;11.60;;
20986;SDS011;10652;50.306;8.570;2023-10-19T16:52:29;15.40;;;11.23;;
20986;SDS011;10652;50.306;8.570;2023-10-19T16:56:31;12.95;;;9.32;;
20986;SDS011;10652;50.306;8.570;2023-10-19T17:00:33;12.13;;;8.27;;
20986;SDS011;10652;50.306;8.570;2023-10-19T17:04:42;11.48;;;8.50;;
20986;SDS011;10652;50.306;8.570;2023-10-19T17:08:44;13.63;;;8.80;;
20986;SDS011;10652;50.306;8.570;2023-10-19T17:12:46;10.52;;;7.40;;
20986;SDS011;10652;50.306;8.570;2023-10-19T17:16:48;10.32;;;8.27;;
20986;SDS011;10652;50.306;8.570;2023-10-19T17:20:51;11.60;;;8.50;;
20986;SDS011;10652;50.306;8.570;2023-10-19T17:24:54;10.40;;;7.82;;
20986;SDS011;10652;50.306;8.570;2023-10-19T17:28:56;7.90;;;7.07;;
20986;SDS011;10652;50.306;8.570;2023-10-19T17:32:59;9.40;;;7.28;;
20986;SDS011;10652;50.306;8.570;2023-10-19T17:37:12;10.85;;;8.13;;
20986;SDS011;10652;50.306;8.570;2023-10-19T17:41:15;11.23;;;9.32;;
20986;SDS011;10652;50.306;8.570;2023-10-19T17:45:17;11.13;;;9.32;;
20986;SDS011;10652;50.306;8.570;2023-10-19T17:49:19;14.48;;;9.13;;
20986;SDS011;10652;50.306;8.570;2023-10-19T17:53:21;12.65;;;8.70;;
20986;SDS011;10652;50.306;8.570;2023-10-19T17:57:25;11.63;;;9.02;;
20986;SDS011;10652;50.306;8.570;2023-10-19T18:01:27;13.13;;;8.95;;
20986;SDS011;10652;50.306;8.570;2023-10-19T18:05:32;8.93;;;7.95;;
20986;SDS011;10652;50.306;8.570;2023-10-19T18:09:34;8.23;;;6.93;;
20986;SDS011;10652;50.306;8.570;2023-10-19T18:13:39;7.60;;;6.07;;
20986;SDS011;10652;50.306;8.570;2023-10-19T18:17:41;7.78;;;6.10;;
20986;SDS011;10652;50.306;8.570;2023-10-19T18:21:44;6.88;;;6.20;;
20986;SDS011;10652;50.306;8.570;2023-10-19T18:25:46;8.73;;;6.90;;
20986;SDS011;10652;50.306;8.570;2023-10-19T18:29:48;7.85;;;6.65;;
20986;SDS011;10652;50.306;8.570;2023-10-19T18:33:50;9.35;;;7.60;;
20986;SDS011;10652;50.306;8.570;2023-10-19T18:37:53;10.07;;;7.47;;
20986;SDS011;10652;50.306;8.570;2023-10-19T18:41:55;11.38;;;8.18;;
20986;SDS011;10652;50.306;8.570;2023-10-19T18:45:59;10.52;;;7.90;;
20986;SDS011;10652;50.306;8.570;2023-10-19T18:50:01;10.60;;;7.70;;
20986;SDS011;10652;50.306;8.570;2023-10-19T18:54:30;9.23;;;8.32;;
20986;SDS011;10652;50.306;8.570;2023-10-19T18:58:32;9.18;;;8.18;;
20986;SDS011;10652;50.306;8.570;2023-10-19T19:02:35;10.38;;;7.20;;
20986;SDS011;10652;50.306;8.570;2023-10-19T19:06:37;8.85;;;7.95;;
20986;SDS011;10652;50.306;8.570;2023-10-19T19:10:40;10.40;;;7.93;;
20986;SDS011;10652;50.306;8.570;2023-10-19T19:14:42;8.98;;;7.50;;
20986;SDS011;10652;50.306;8.570;2023-10-19T19:18:44;8.52;;;7.63;;
20986;SDS011;10652;50.306;8.570;2023-10-19T19:22:47;8.73;;;7.82;;
20986;SDS011;10652;50.306;8.570;2023-10-19T19:26:49;8.73;;;7.40;;
20986;SDS011;10652;50.306;8.570;2023-10-19T19:30:51;7.90;;;7.13;;
20986;SDS011;10652;50.306;8.570;2023-10-19T19:34:53;9.25;;;7.20;;
20986;SDS011;10652;50.306;8.570;2023-10-19T19:38:56;8.73;;;7.82;;
20986;SDS011;10652;50.306;8.570;2023-10-19T19:42:59;8.38;;;7.53;;
20986;SDS011;10652;50.306;8.570;2023-10-19T19:47:01;7.90;;;7.10;;
20986;SDS011;10652;50.306;8.570;2023-10-19T19:51:03;9.65;;;8.65;;
20986;SDS011;10652;50.306;8.570;2023-10-19T19:55:07;10.98;;;8.80;;
20986;SDS011;10652;50.306;8.570;2023-10-19T19:59:14;9.88;;;8.48;;
20986;SDS011;10652;50.306;8.570;2023-10-19T20:03:16;9.10;;;8.20;;
20986;SDS011;10652;50.306;8.570;2023-10-19T20:07:18;9.18;;;7.70;;
20986;SDS011;10652;50.306;8.570;2023-10-19T20:11:20;10.13;;;8.63;;
20986;SDS011;10652;50.306;8.570;2023-10-19T20:15:23;9.90;;;8.95;;
20986;SDS011;10652;50.306;8.570;2023-10-19T20:19:25;9.48;;;8.48;;
20986;SDS011;10652;50.306;8.570;2023-10-19T20:23:27;8.18;;;7.38;;
20986;SDS011;10652;50.306;8.570;2023-10-19T20:27:30;8.10;;;6.75;;
20986;SDS011;10652;50.306;8.570;2023-10-19T20:31:32;7.35;;;6.47;;
20986;SDS011;10652;50.306;8.570;2023-10-19T20:35:34;10.40;;;7.63;;
20986;SDS011;10652;50.306;8.570;2023-10-19T20:39:36;7.68;;;6.88;;
20986;SDS011;10652;50.306;8.570;2023-10-19T20:43:41;7.90;;;7.10;;
20986;SDS011;10652;50.306;8.570;2023-10-19T20:47:46;8.20;;;7.40;;
20986;SDS011;10652;50.306;8.570;2023-10-19T20:51:59;8.23;;;7.35;;
20986;SDS011;10652;50.306;8.570;2023-10-19T20:56:01;9.07;;;7.50;;
20986;SDS011;10652;50.306;8.570;2023-10-19T21:00:05;7.97;;;7.28;;
20986;SDS011;10652;50.306;8.570;2023-10-19T21:04:10;8.82;;;8.02;;
20986;SDS011;10652;50.306;8.570;2023-10-19T21:08:12;9.02;;;7.93;;
20986;SDS011;10652;50.306;8.570;2023-10-19T21:12:15;8.50;;;7.50;;
20986;SDS011;10652;50.306;8.570;2023-10-19T21:16:19;8.18;;;7.30;;
20986;SDS011;10652;50.306;8.570;2023-10-19T21:20:22;8.15;;;7.22;;
20986;SDS011;10652;50.306;8.570;2023-10-19T21:24:26;8.40;;;6.97;;
20986;SDS011;10652;50.306;8.570;2023-10-19T21:28:28;9.32;;;7.03;;
20986;SDS011;10652;50.306;8.570;2023-10-19T21:32:30;7.68;;;6.60;;
20986;SDS011;10652;50.306;8.570;2023-10-19T21:36:35;7.72;;;6.97;;
20986;SDS011;10652;50.306;8.570;2023-10-19T21:40:40;7.97;;;6.97;;
20986;SDS011;10652;50.306;8.570;2023-10-19T21:44:47;7.43;;;6.55;;
20986;SDS011;10652;50.306;8.570;2023-10-19T21:48:49;8.60;;;7.70;;
20986;SDS011;10652;50.306;8.570;2023-10-19T21:52:51;8.20;;;7.07;;
20986;SDS011;10652;50.306;8.570;2023-10-19T21:56:53;8.15;;;6.85;;
20986;SDS011;10652;50.306;8.570;2023-10-19T22:00:55;7.50;;;6.78;;
20986;SDS011;10652;50.306;8.570;2023-10-19T22:05:06;7.43;;;6.72;;
20986;SDS011;10652;50.306;8.570;2023-10-19T22:09:25;7.93;;;6.20;;
20986;SDS011;10652;50.306;8.570;2023-10-19T22:13:27;7.28;;;6.53;;
20986;SDS011;10652;50.306;8.570;2023-10-19T22:17:30;7.65;;;6.38;;
20986;SDS011;10652;50.306;8.570;2023-10-19T22:21:32;6.10;;;5.60;;
20986;SDS011;10652;50.306;8.570;2023-10-19T22:25:37;5.35;;;4.95;;
20986;SDS011;10652;50.306;8.570;2023-10-19T22:29:40;4.47;;;4.07;;
20986;SDS011;10652;50.306;8.570;2023-10-19T22:33:42;8.98;;;3.10;;
20986;SDS011;10652;50.306;8.570;2023-10-19T22:37:44;2.92;;;2.72;;
20986;SDS011;10652;50.306;8.570;2023-10-19T22:41:47;3.45;;;2.80;;
20986;SDS011;10652;50.306;8.570;2023-10-19T22:45:50;2.42;;;1.50;;
20986;SDS011;10652;50.306;8.570;2023-10-19T22:49:53;1.80;;;1.27;;
20986;SDS011;10652;50.306;8.570;2023-10-19T22:53:55;2.20;;;2.00;;
20986;SDS011;10652;50.306;8.570;2023-10-19T22:57:58;1.60;;;1.50;;
20986;SDS011;10652;50.306;8.570;2023-10-19T23:02:01;2.20;;;1.60;;
20986;SDS011;10652;50.306;8.570;2023-10-19T23:06:03;1.80;;;1.70;;
20986;SDS011;10652;50.306;8.570;2023-10-19T23:10:05;1.85;;;1.75;;
20986;SDS011;10652;50.306;8.570;2023-10-19T23:14:08;2.63;;;2.40;;
20986;SDS011;10652;50.306;8.570;2023-10-19T23:18:13;2.70;;;2.50;;
20986;SDS011;10652;50.306;8.570;2023-10-19T23:22:17;5.78;;;4.78;;
20986;SDS011;10652;50.306;8.570;2023-10-19T23:26:20;4.65;;;4.25;;
20986;SDS011;10652;50.306;8.570;2023-10-19T23:30:23;4.88;;;4.40;;
20986;SDS011;10652;50.306;8.570;2023-10-19T23:34:25;5.90;;;5.22;;
20986;SDS011;10652;50.306;8.570;2023-10-19T23:38:27;7.63;;;5.82;;
20986;SDS011;10652;50.306;8.570;2023-10-19T23:42:29;8.10;;;6.45;;
20986;SDS011;10652;50.306;8.570;2023-10-19T23:46:32;9.50;;;7.07;;
20986;SDS011;10652;50.306;8.570;2023-10-19T23:50:34;21.10;;;7.00;;
20986;SDS011;10652;50.306;8.570;2023-10-19T23:54:38;13.02;;;7.30;;
20986;SDS011;10652;50.306;8.570;2023-10-19T23:58:40;29.02;;;6.45;;
